Time;durP1;ratioP1;P1;durP2;ratioP2;P2;SDS_P1;SDS_P2;PMS_P1;PMS_P2;Temp;Humidity;BMP_temperature;BMP_pressure;BME280_temperature;BME280_humidity;BME280_pressure;Samples;Min_cycle;Max_cycle;Signal;HPM_P1;HPM_P2
2021/03/26 00:01:18;;;;;;;4.30;2.70;;;;;;;6.92;69.53;101040.16;5009970;28;20040;-70
2021/03/26 00:03:46;;;;;;;8.38;5.03;;;;;;;6.97;70.06;101040.63;5011000;28;20034;-71
2021/03/26 00:06:19;;;;;;;8.07;4.75;;;;;;;6.81;71.16;101048.81;5005293;28;20031;-71
2021/03/26 00:08:45;;;;;;;5.38;3.30;;;;;;;6.70;69.96;101053.22;4999620;28;20034;-70
2021/03/26 00:11:12;;;;;;;5.32;3.15;;;;;;;6.66;69.67;101046.53;5008150;28;20045;-71
2021/03/26 00:13:38;;;;;;;6.10;3.65;;;;;;;6.59;70.89;101048.75;5002859;28;20022;-71
2021/03/26 00:16:05;;;;;;;4.35;2.70;;;;;;;6.52;71.16;101044.91;5000277;28;20026;-72
2021/03/26 00:18:30;;;;;;;6.35;4.00;;;;;;;6.55;69.96;101042.03;5002320;28;20402;-71
2021/03/26 00:20:59;;;;;;;7.07;4.18;;;;;;;6.48;70.90;101039.03;5009575;28;20038;-71
2021/03/26 00:23:25;;;;;;;4.35;2.75;;;;;;;6.38;72.61;101040.66;5008824;28;20104;-71
2021/03/26 00:25:50;;;;;;;5.45;3.20;;;;;;;6.43;70.14;101045.56;4991667;28;20034;-71
2021/03/26 00:28:15;;;;;;;6.35;2.67;;;;;;;6.38;70.68;101048.53;5008490;28;20044;-71
2021/03/26 00:30:41;;;;;;;3.90;2.30;;;;;;;6.33;72.00;101045.41;5010497;28;20133;-71
2021/03/26 00:33:08;;;;;;;3.80;2.40;;;;;;;6.26;71.29;101049.44;4992730;28;20038;-71
2021/03/26 00:35:34;;;;;;;6.47;3.95;;;;;;;6.30;70.09;101053.53;5010127;28;20034;-71
2021/03/26 00:38:00;;;;;;;5.80;2.92;;;;;;;6.21;72.62;101051.56;5002737;28;20034;-70
2021/03/26 00:40:25;;;;;;;4.03;2.42;;;;;;;6.15;70.87;101055.47;5006092;28;21427;-71
2021/03/26 00:42:51;;;;;;;7.60;3.45;;;;;;;5.99;72.03;101049.63;5007722;28;20101;-71
2021/03/26 00:45:22;;;;;;;4.03;2.80;;;;;;;5.92;72.28;101044.78;5004525;28;20049;-71
2021/03/26 00:47:47;;;;;;;4.78;2.75;;;;;;;5.95;71.28;101039.31;5009911;28;20045;-71
2021/03/26 00:50:22;;;;;;;4.30;2.92;;;;;;;5.92;72.66;101041.31;5005534;28;20030;-71
2021/03/26 00:52:48;;;;;;;4.03;2.67;;;;;;;5.92;71.63;101042.16;5009803;28;20026;-71
2021/03/26 00:55:15;;;;;;;6.95;3.80;;;;;;;5.85;73.96;101040.06;4992238;28;20037;-71
2021/03/26 00:57:41;;;;;;;6.40;3.80;;;;;;;5.70;74.09;101042.84;4992128;28;20072;-71
2021/03/26 01:00:09;;;;;;;5.38;3.80;;;;;;;5.54;74.36;101047.47;5009528;28;20034;-72
2021/03/26 01:02:35;;;;;;;7.63;4.93;;;;;;;5.66;72.56;101046.59;4991527;28;20215;-71
2021/03/26 01:05:00;;;;;;;6.38;3.65;;;;;;;5.64;73.43;101038.00;4991232;28;20156;-70
2021/03/26 01:07:25;;;;;;;5.63;3.60;;;;;;;5.61;72.72;101037.41;5007591;28;20053;-71
2021/03/26 01:09:51;;;;;;;9.18;4.10;;;;;;;5.68;72.31;101036.84;5007853;28;20057;-71
2021/03/26 01:12:17;;;;;;;5.45;3.60;;;;;;;5.64;74.37;101045.03;4999436;28;20041;-71
2021/03/26 01:14:42;;;;;;;4.45;3.05;;;;;;;5.62;72.66;101044.31;4999795;28;20034;-71
2021/03/26 01:17:08;;;;;;;5.38;2.90;;;;;;;5.60;74.57;101039.19;5009467;28;20122;-71
2021/03/26 01:19:38;;;;;;;4.10;2.70;;;;;;;5.63;73.09;101046.84;5009743;28;20414;-70
2021/03/26 01:22:05;;;;;;;5.05;3.50;;;;;;;5.56;74.28;101053.44;5008281;28;20042;-71
2021/03/26 01:24:31;;;;;;;5.53;3.10;;;;;;;5.49;74.15;101044.34;5001085;28;20381;-71
2021/03/26 01:26:56;;;;;;;4.78;3.15;;;;;;;5.42;74.98;101049.16;5005995;28;20057;-70
2021/03/26 01:29:21;;;;;;;5.05;2.97;;;;;;;5.47;72.31;101048.84;5007339;28;20038;-71
2021/03/26 01:31:47;;;;;;;6.47;3.42;;;;;;;5.44;73.64;101041.19;5007339;28;20520;-71
2021/03/26 01:34:12;;;;;;;5.28;3.20;;;;;;;5.41;75.30;101044.88;5003110;28;20566;-71
2021/03/26 01:36:37;;;;;;;7.05;3.38;;;;;;;5.45;72.45;101037.63;5006919;28;20121;-71
2021/03/26 01:39:05;;;;;;;6.40;3.00;;;;;;;5.42;75.04;101036.03;5009244;28;20036;-71
2021/03/26 01:41:33;;;;;;;6.75;3.95;;;;;;;5.42;72.76;101037.84;5009702;28;20034;-71
2021/03/26 01:43:59;;;;;;;7.75;4.13;;;;;;;5.37;75.70;101035.53;5007189;28;20038;-71
2021/03/26 01:46:26;;;;;;;4.43;2.75;;;;;;;5.33;73.75;101039.28;5008748;28;20046;-71
2021/03/26 01:48:55;;;;;;;4.35;2.50;;;;;;;5.29;73.18;101038.69;5006642;28;20070;-70
2021/03/26 01:51:26;;;;;;;5.00;3.03;;;;;;;5.26;75.17;101038.88;5009243;28;20041;-71
2021/03/26 01:53:52;;;;;;;;;;;;;;;5.17;75.22;101034.25;5009425;28;20518;-71
2021/03/26 01:56:17;;;;;;;7.28;4.43;;;;;;;5.24;73.76;101037.28;5008605;28;19917;-71
2021/03/26 01:58:42;;;;;;;4.63;3.10;;;;;;;5.17;74.98;101033.41;5007484;28;20056;-70
2021/03/26 02:01:17;;;;;;;5.63;3.58;;;;;;;5.17;73.79;101031.63;4991521;28;20219;-71
2021/03/26 02:03:48;;;;;;;7.47;4.15;;;;;;;5.15;74.87;101028.28;5008919;28;20037;-71
2021/03/26 02:06:27;;;;;;;4.75;2.92;;;;;;;5.12;76.43;101025.84;5006734;28;20121;-71
2021/03/26 02:09:05;;;;;;;4.13;2.70;;;;;;;5.17;73.88;101020.31;5008965;28;20399;-70
2021/03/26 02:11:39;;;;;;;6.35;3.85;;;;;;;5.21;73.77;101024.41;5006095;28;20025;-70
2021/03/26 02:14:11;;;;;;;6.38;3.60;;;;;;;5.19;75.18;101027.13;5001095;28;20610;-72
2021/03/26 02:16:37;;;;;;;5.47;3.10;;;;;;;5.21;76.40;101025.25;5006397;28;20048;-71
2021/03/26 02:19:03;;;;;;;5.70;3.90;;;;;;;5.21;76.09;101020.00;5008884;28;20038;-71
2021/03/26 02:21:32;;;;;;;3.70;2.60;;;;;;;5.24;75.76;101030.28;5006704;28;20402;-69
2021/03/26 02:24:02;;;;;;;6.88;3.80;;;;;;;5.29;74.17;101022.94;5008547;28;20402;-71
2021/03/26 02:26:40;;;;;;;9.75;4.80;;;;;;;5.31;74.89;101025.44;4986948;28;20433;-71
2021/03/26 02:29:25;;;;;;;7.65;3.88;;;;;;;5.26;75.68;101017.06;5001889;28;20034;-71
2021/03/26 02:31:58;;;;;;;7.05;4.10;;;;;;;5.29;74.71;101019.47;5008470;28;20250;-70
2021/03/26 02:34:24;;;;;;;5.03;3.58;;;;;;;5.30;74.76;101021.16;5008058;28;20081;-70
2021/03/26 02:36:54;;;;;;;4.68;3.00;;;;;;;5.31;74.60;101028.06;5008625;28;20040;-71
2021/03/26 02:39:26;;;;;;;6.40;3.25;;;;;;;5.35;76.39;101015.59;5009119;28;20058;-71
2021/03/26 02:41:55;;;;;;;7.20;3.85;;;;;;;5.38;76.87;101013.59;5006667;28;20038;-71
2021/03/26 02:44:44;;;;;;;5.50;3.17;;;;;;;5.42;76.55;101017.69;5011329;28;20056;-71
2021/03/26 02:47:38;;;;;;;5.45;3.25;;;;;;;5.51;76.68;101016.22;5006434;28;20033;-71
2021/03/26 02:50:12;;;;;;;4.80;3.58;;;;;;;5.55;76.03;101009.78;5006498;28;20368;-71
2021/03/26 02:53:09;;;;;;;5.32;3.38;;;;;;;5.57;75.16;101013.16;5008742;28;20073;-71
2021/03/26 02:56:32;;;;;;;5.07;3.28;;;;;;;5.58;76.03;101011.34;5012214;28;20030;-71
2021/03/26 02:59:13;;;;;;;5.78;3.40;;;;;;;5.59;75.39;101019.13;4926821;29;20071;-71
2021/03/26 03:01:50;;;;;;;7.60;3.50;;;;;;;5.58;75.99;101017.47;4934516;29;20130;-71
2021/03/26 03:04:29;;;;;;;6.47;3.65;;;;;;;5.54;77.21;101013.38;4978268;28;20121;-71
2021/03/26 03:07:04;;;;;;;8.90;4.70;;;;;;;5.70;74.98;101021.00;4993513;28;20061;-71
2021/03/26 03:09:32;;;;;;;7.47;4.38;;;;;;;5.84;75.02;101020.00;5008354;28;20506;-71
2021/03/26 03:12:10;;;;;;;6.70;3.63;;;;;;;5.91;75.32;101019.50;5004682;28;20486;-71
2021/03/26 03:14:45;;;;;;;8.02;5.00;;;;;;;5.87;77.90;101019.81;5008688;28;20180;-71
2021/03/26 03:17:38;;;;;;;8.82;4.53;;;;;;;6.00;75.08;101014.53;5011444;28;20030;-71
2021/03/26 03:20:19;;;;;;;5.82;3.42;;;;;;;6.09;74.79;101016.50;5010810;28;20041;-72
2021/03/26 03:23:15;;;;;;;5.80;3.40;;;;;;;6.15;74.42;101009.03;5009730;28;20117;-71
2021/03/26 03:25:41;;;;;;;4.30;2.75;;;;;;;6.14;75.26;101009.97;5008129;28;20041;-71
2021/03/26 03:28:27;;;;;;;5.05;2.97;;;;;;;6.16;74.36;100999.38;5011319;28;20096;-72
2021/03/26 03:31:00;;;;;;;3.92;2.50;;;;;;;6.17;75.09;101003.66;5009480;28;20594;-71
2021/03/26 03:33:35;;;;;;;3.33;2.30;;;;;;;6.21;74.97;101005.13;5010429;28;20033;-71
2021/03/26 03:36:06;;;;;;;3.13;2.03;;;;;;;6.22;75.07;101003.31;5005568;28;20065;-71
2021/03/26 03:38:51;;;;;;;3.85;2.47;;;;;;;6.23;74.68;101007.63;5011343;28;20108;-71
2021/03/26 03:41:44;;;;;;;3.83;2.85;;;;;;;6.18;74.19;101010.59;5011591;28;20404;-71
2021/03/26 03:44:24;;;;;;;4.78;2.75;;;;;;;6.11;74.02;100998.88;5004519;28;20125;-71
2021/03/26 03:46:57;;;;;;;5.50;3.00;;;;;;;6.13;74.73;101003.06;5011298;28;20066;-71
2021/03/26 03:49:55;;;;;;;7.88;3.95;;;;;;;6.19;73.83;100999.13;5007377;28;20041;-71
2021/03/26 03:52:56;;;;;;;5.03;2.92;;;;;;;6.13;74.00;100999.59;5007780;28;20449;-71
2021/03/26 03:55:28;;;;;;;4.13;2.88;;;;;;;6.05;74.23;100992.25;4970633;28;20064;-71
2021/03/26 03:58:03;;;;;;;4.55;2.58;;;;;;;6.02;74.68;100992.47;5008869;28;20450;-71
2021/03/26 04:00:34;;;;;;;4.18;2.80;;;;;;;5.95;74.20;100984.22;5003357;28;20133;-71
2021/03/26 04:03:15;;;;;;;4.50;2.92;;;;;;;5.92;73.94;100994.06;5003066;28;20462;-71
2021/03/26 04:06:05;;;;;;;7.90;4.30;;;;;;;5.93;73.79;100995.75;5009527;28;20065;-71
2021/03/26 04:08:38;;;;;;;7.85;4.45;;;;;;;5.88;74.01;100988.19;4999582;28;20030;-71
2021/03/26 04:11:15;;;;;;;5.93;3.25;;;;;;;5.79;76.93;100986.22;5000377;28;20037;-71
2021/03/26 04:13:46;;;;;;;6.60;4.15;;;;;;;5.72;76.51;100991.09;5009303;28;20216;-71
2021/03/26 04:16:17;;;;;;;6.93;3.70;;;;;;;5.70;74.83;100990.34;5003874;28;20034;-71
2021/03/26 04:18:56;;;;;;;10.80;5.10;;;;;;;5.72;74.49;100988.47;5010614;28;20176;-71
2021/03/26 04:21:26;;;;;;;6.57;4.30;;;;;;;5.62;75.18;100989.22;5008032;28;20034;-71
2021/03/26 04:24:01;;;;;;;6.70;3.33;;;;;;;5.53;76.85;100983.69;5010380;28;20042;-71
2021/03/26 04:26:54;;;;;;;5.53;3.70;;;;;;;5.51;75.47;100980.31;5006442;28;20044;-71
2021/03/26 04:29:32;;;;;;;5.70;3.00;;;;;;;5.50;75.00;100989.13;5007822;28;20036;-71
2021/03/26 04:32:05;;;;;;;7.38;4.00;;;;;;;5.41;76.72;100987.16;5010088;28;20498;-71
2021/03/26 04:34:31;;;;;;;5.47;3.75;;;;;;;5.29;76.02;100982.75;5009776;28;20038;-71
2021/03/26 04:37:08;;;;;;;4.70;3.20;;;;;;;5.22;76.59;100984.97;5008998;28;20449;-71
2021/03/26 04:39:45;;;;;;;7.38;4.32;;;;;;;5.10;77.12;100983.19;5010140;28;20041;-71
2021/03/26 04:42:15;;;;;;;9.48;4.80;;;;;;;4.88;78.36;100982.03;5009704;28;20427;-71
2021/03/26 04:44:49;;;;;;;6.38;4.00;;;;;;;4.79;78.52;100976.56;5009748;28;20061;-71
2021/03/26 04:47:24;;;;;;;7.00;4.20;;;;;;;4.78;77.93;100982.75;5009848;28;20030;-71
2021/03/26 04:50:06;;;;;;;10.63;5.47;;;;;;;4.78;78.68;100974.91;4985516;28;20442;-71
2021/03/26 04:52:51;;;;;;;7.28;4.45;;;;;;;4.77;79.18;100987.16;5006827;28;20053;-71
2021/03/26 04:55:28;;;;;;;6.95;4.00;;;;;;;4.75;78.83;100988.22;4995603;28;20406;-71
2021/03/26 04:57:59;;;;;;;8.70;4.75;;;;;;;4.79;76.76;100980.06;5010692;28;20042;-71
2021/03/26 05:00:30;;;;;;;9.02;4.43;;;;;;;4.80;78.17;100976.47;5005918;28;20030;-71
2021/03/26 05:03:11;;;;;;;5.60;3.95;;;;;;;4.74;77.28;100982.13;5010338;28;20049;-71
2021/03/26 05:05:42;;;;;;;11.32;5.53;;;;;;;4.72;76.59;100970.94;5008619;28;20260;-71
2021/03/26 05:08:09;;;;;;;;;;;;;;;4.68;78.63;100972.91;5006198;28;20030;-72
2021/03/26 05:10:36;;;;;;;6.78;4.15;;;;;;;4.66;77.09;100976.56;5003356;28;19918;-71
2021/03/26 05:13:09;;;;;;;5.53;3.92;;;;;;;4.64;79.17;100979.28;4992408;28;20080;-71
2021/03/26 05:15:47;;;;;;;7.20;3.92;;;;;;;4.68;78.60;100977.31;5008683;28;20037;-71
2021/03/26 05:18:45;;;;;;;6.85;3.85;;;;;;;4.63;77.80;100982.00;5007508;28;20034;-71
2021/03/26 05:21:16;;;;;;;6.93;4.40;;;;;;;4.56;79.31;100978.97;5007795;28;20042;-71
2021/03/26 05:23:47;;;;;;;6.25;3.85;;;;;;;4.58;79.67;100977.09;5009202;28;20065;-72
2021/03/26 05:26:14;;;;;;;5.82;4.07;;;;;;;4.62;79.03;100977.69;5009404;28;20454;-71
2021/03/26 05:28:45;;;;;;;9.15;5.10;;;;;;;4.59;78.62;100983.16;5006259;28;20025;-71
2021/03/26 05:31:19;;;;;;;;;;;;;;;4.53;79.44;100979.16;5010328;28;20402;-71
2021/03/26 05:33:48;;;;;;;6.57;4.10;;;;;;;4.55;79.14;100981.66;4999818;28;19928;-71
2021/03/26 05:36:23;;;;;;;8.27;5.10;;;;;;;4.54;79.57;100977.38;5008657;28;20109;-71
2021/03/26 05:38:58;;;;;;;11.55;6.40;;;;;;;4.42;79.04;100979.88;5008869;28;20048;-71
2021/03/26 05:41:32;;;;;;;9.05;5.93;;;;;;;4.36;79.51;100984.66;5010137;28;20040;-71
2021/03/26 05:44:24;;;;;;;8.05;5.03;;;;;;;4.41;79.29;100987.81;4988383;28;20509;-71
2021/03/26 05:47:14;;;;;;;11.40;5.68;;;;;;;4.54;80.52;100986.06;5008436;28;20038;-71
2021/03/26 05:50:06;;;;;;;5.97;4.00;;;;;;;4.70;79.75;100996.38;5002082;28;20042;-71
2021/03/26 05:53:10;;;;;;;6.13;4.18;;;;;;;4.80;77.66;100996.59;4991539;28;20403;-71
2021/03/26 05:55:55;;;;;;;7.20;4.00;;;;;;;4.83;79.95;100996.38;4959010;28;20038;-72
2021/03/26 05:58:34;;;;;;;8.57;4.85;;;;;;;4.82;78.05;100997.34;5008448;28;20092;-71
2021/03/26 06:01:02;;;;;;;6.65;4.57;;;;;;;4.88;79.92;100997.75;5001941;28;20036;-71
2021/03/26 06:03:46;;;;;;;7.63;4.95;;;;;;;4.99;79.23;100996.19;4991178;28;20034;-71
2021/03/26 06:06:43;;;;;;;11.35;6.05;;;;;;;5.28;78.98;100995.03;5001950;28;20036;-72
2021/03/26 06:09:30;;;;;;;9.80;5.40;;;;;;;5.63;77.37;100991.75;4986749;28;20168;-71
2021/03/26 06:12:17;;;;;;;8.32;5.10;;;;;;;6.03;77.15;100999.44;5008635;28;20054;-71
2021/03/26 06:15:04;;;;;;;9.00;4.85;;;;;;;6.08;76.85;101004.34;5008988;28;20034;-71
2021/03/26 06:17:51;;;;;;;7.15;4.50;;;;;;;6.21;76.63;100999.03;5012474;28;20033;-71
2021/03/26 06:20:50;;;;;;;10.40;6.22;;;;;;;6.42;76.22;100999.25;5013120;28;20042;-71
2021/03/26 06:23:31;;;;;;;6.45;4.13;;;;;;;6.54;75.64;101006.22;5006368;28;20038;-71
2021/03/26 06:26:33;;;;;;;11.50;6.40;;;;;;;6.70;75.46;101003.31;5005108;28;20034;-72
2021/03/26 06:29:38;;;;;;;7.25;4.90;;;;;;;6.84;75.96;101008.34;5011892;28;20125;-71
2021/03/26 06:32:41;;;;;;;6.80;4.40;;;;;;;7.04;75.47;101004.19;4964140;28;20536;-72
2021/03/26 06:35:27;;;;;;;6.97;4.28;;;;;;;7.21;74.67;101010.78;4994754;28;20141;-71
2021/03/26 06:38:12;;;;;;;6.60;4.30;;;;;;;7.31;74.48;101005.66;5012752;28;20037;-71
2021/03/26 06:41:12;;;;;;;7.88;5.30;;;;;;;7.46;73.95;101001.84;5004602;28;20462;-71
2021/03/26 06:43:56;;;;;;;13.98;6.30;;;;;;;7.59;73.74;100993.81;5010887;28;20062;-71
2021/03/26 06:46:40;;;;;;;9.80;5.50;;;;;;;7.70;73.46;100999.09;5011778;28;20026;-72
2021/03/26 06:49:24;;;;;;;11.20;6.00;;;;;;;7.73;73.73;101001.47;5012315;28;20034;-71
2021/03/26 06:52:06;;;;;;;8.48;5.53;;;;;;;7.82;73.93;100998.09;5003868;28;20044;-71
2021/03/26 06:54:51;;;;;;;6.95;4.25;;;;;;;8.08;73.46;100996.00;5008977;28;20037;-72
2021/03/26 06:57:52;;;;;;;8.05;3.97;;;;;;;8.32;73.43;100996.75;5012088;28;20153;-71
2021/03/26 07:00:41;;;;;;;7.93;5.05;;;;;;;8.38;72.66;100991.81;5001916;28;20060;-71
2021/03/26 07:03:15;;;;;;;7.70;4.93;;;;;;;8.45;72.89;100989.56;5005863;28;20046;-71
2021/03/26 07:06:28;;;;;;;9.90;5.65;;;;;;;8.50;72.66;100990.84;4992585;28;20042;-71
2021/03/26 07:09:14;;;;;;;8.13;4.90;;;;;;;9.07;72.95;100994.00;5005007;28;20117;-72
2021/03/26 07:11:43;;;;;;;8.57;4.97;;;;;;;10.06;71.25;100986.28;4992211;28;20180;-71
2021/03/26 07:14:28;;;;;;;7.75;4.38;;;;;;;10.99;69.31;100989.34;5005870;28;20036;-72
2021/03/26 07:17:09;;;;;;;7.10;4.60;;;;;;;11.78;68.71;101001.28;5010746;28;20056;-71
2021/03/26 07:19:52;;;;;;;11.32;6.50;;;;;;;12.18;61.57;100987.66;4995542;28;20047;-71
2021/03/26 07:22:26;;;;;;;8.18;4.88;;;;;;;12.57;66.86;100987.34;5010899;28;20034;-71
2021/03/26 07:25:03;;;;;;;8.50;5.60;;;;;;;13.02;64.88;100986.34;5011237;28;20053;-71
2021/03/26 07:27:48;;;;;;;5.78;3.88;;;;;;;13.77;63.16;100994.50;5010949;28;20506;-71
2021/03/26 07:30:38;;;;;;;5.80;3.53;;;;;;;14.67;54.81;100990.38;5009152;28;20038;-72
2021/03/26 07:33:42;;;;;;;9.38;5.28;;;;;;;15.35;57.29;101000.56;5008751;28;20088;-71
2021/03/26 07:36:17;;;;;;;11.25;7.05;;;;;;;15.78;53.81;101001.09;4964352;28;20121;-72
2021/03/26 07:39:15;;;;;;;12.98;7.20;;;;;;;16.13;53.26;101002.38;4990248;28;20496;-71
2021/03/26 07:41:41;;;;;;;13.30;8.50;;;;;;;16.24;51.15;101000.34;4989022;28;20500;-71
2021/03/26 07:44:24;;;;;;;16.97;9.43;;;;;;;16.41;49.53;101001.88;4990333;28;20038;-71
2021/03/26 07:47:06;;;;;;;13.38;8.20;;;;;;;16.59;49.85;101001.56;4991477;28;20046;-69
2021/03/26 07:49:37;;;;;;;14.07;8.68;;;;;;;16.73;49.70;100994.59;5000678;28;20107;-69
2021/03/26 07:52:18;;;;;;;;;;;;;;;17.01;48.59;100999.38;5009137;28;20061;-70
2021/03/26 07:55:09;;;;;;;14.00;8.13;;;;;;;17.24;48.84;100997.47;4998777;28;20365;-70
2021/03/26 07:57:56;;;;;;;12.40;8.73;;;;;;;17.53;45.55;100993.94;5002554;28;20037;-69
2021/03/26 08:00:37;;;;;;;12.05;7.70;;;;;;;17.78;45.91;100997.16;5006103;28;20490;-71
2021/03/26 08:03:14;;;;;;;11.57;7.47;;;;;;;17.85;43.86;100991.06;5008166;28;20494;-69
2021/03/26 08:06:05;;;;;;;11.90;8.20;;;;;;;18.40;44.13;100992.25;5007231;28;20030;-69
2021/03/26 08:08:56;;;;;;;12.32;8.38;;;;;;;17.94;43.29;100984.59;5009655;28;20053;-70
2021/03/26 08:11:36;;;;;;;11.13;6.75;;;;;;;18.11;43.43;100994.03;5010316;28;20574;-70
2021/03/26 08:14:29;;;;;;;12.82;8.00;;;;;;;18.16;42.96;100997.00;5006325;28;20037;-70
2021/03/26 08:17:16;;;;;;;12.52;8.00;;;;;;;18.23;42.41;101003.25;5010118;28;20038;-72
2021/03/26 08:20:07;;;;;;;13.55;8.20;;;;;;;18.09;42.20;100995.25;4992422;28;20041;-70
2021/03/26 08:22:54;;;;;;;11.05;7.50;;;;;;;18.21;43.03;100996.38;5007133;28;20121;-70
2021/03/26 08:25:48;;;;;;;13.68;8.48;;;;;;;18.21;40.80;100988.34;5004982;28;20038;-70
2021/03/26 08:28:16;;;;;;;13.30;8.50;;;;;;;18.22;41.55;100990.03;5001483;28;20045;-71
2021/03/26 08:30:47;;;;;;;15.07;9.50;;;;;;;18.53;40.34;100994.25;4993063;28;20038;-71
2021/03/26 08:33:34;;;;;;;12.38;8.38;;;;;;;18.59;40.77;100996.97;5010836;28;20037;-70
2021/03/26 08:36:32;;;;;;;13.85;8.60;;;;;;;18.92;39.93;101004.47;5003233;28;20084;-70
2021/03/26 08:39:09;;;;;;;12.90;8.25;;;;;;;18.98;39.63;100997.50;5009852;28;20030;-70
2021/03/26 08:41:39;;;;;;;8.60;6.47;;;;;;;18.95;40.55;101003.25;5010313;28;20101;-70
2021/03/26 08:44:05;;;;;;;13.57;8.52;;;;;;;19.34;39.43;100991.13;5006550;28;20107;-71
2021/03/26 08:46:36;;;;;;;10.68;6.80;;;;;;;19.74;39.17;101002.91;5010303;28;20034;-70
2021/03/26 08:49:22;;;;;;;12.82;6.78;;;;;;;19.78;39.97;101008.69;5002582;28;20030;-70
2021/03/26 08:52:06;;;;;;;10.60;7.10;;;;;;;20.24;37.99;101002.66;5010073;28;20498;-70
2021/03/26 08:55:04;;;;;;;10.50;7.88;;;;;;;20.82;36.01;101005.59;5010197;28;20052;-71
2021/03/26 08:58:01;;;;;;;11.88;7.93;;;;;;;20.80;35.24;101004.97;5002809;28;20404;-70
2021/03/26 09:01:04;;;;;;;10.77;6.95;;;;;;;20.74;36.33;101003.13;5007296;28;20038;-69
2021/03/26 09:04:02;;;;;;;13.25;7.53;;;;;;;21.05;36.20;100996.28;5009250;28;20064;-70
2021/03/26 09:06:37;;;;;;;9.02;7.00;;;;;;;20.88;36.36;101003.91;4969279;28;20041;-70
2021/03/26 09:09:19;;;;;;;12.48;8.48;;;;;;;21.33;34.69;101004.91;5002858;28;20029;-71
2021/03/26 09:12:03;;;;;;;9.55;6.68;;;;;;;21.29;36.14;100995.59;5001578;28;20042;-70
2021/03/26 09:14:45;;;;;;;10.45;7.72;;;;;;;22.14;33.37;100994.63;5006115;28;20091;-71
2021/03/26 09:17:30;;;;;;;13.07;7.75;;;;;;;21.92;33.30;100988.75;5003037;28;20057;-70
2021/03/26 09:20:16;;;;;;;11.57;7.90;;;;;;;21.95;33.51;100994.53;5008973;28;20576;-70
2021/03/26 09:23:09;;;;;;;14.05;8.85;;;;;;;22.14;33.33;100987.34;4990469;28;20092;-71
2021/03/26 09:25:43;;;;;;;12.07;7.95;;;;;;;22.31;33.01;100981.47;4992499;28;20269;-70
2021/03/26 09:28:29;;;;;;;11.45;8.10;;;;;;;22.02;33.06;100984.56;5008922;28;20082;-71
2021/03/26 09:31:02;;;;;;;12.18;8.40;;;;;;;21.96;33.37;100989.97;5008386;28;20026;-70
2021/03/26 09:33:28;;;;;;;15.88;8.95;;;;;;;21.96;32.80;100977.31;5009180;28;20037;-69
2021/03/26 09:35:58;;;;;;;11.27;8.55;;;;;;;22.00;33.03;100975.00;5008830;28;20029;-70
2021/03/26 09:38:33;;;;;;;11.23;8.38;;;;;;;21.19;35.05;100979.06;5003710;28;20210;-70
2021/03/26 09:41:10;;;;;;;12.65;7.93;;;;;;;20.96;35.81;100974.16;4993442;28;20026;-71
2021/03/26 09:43:45;;;;;;;11.18;8.00;;;;;;;20.31;36.14;100972.06;5001538;28;20042;-71
2021/03/26 09:46:20;;;;;;;11.13;6.97;;;;;;;20.14;38.11;100966.28;5008850;28;20037;-72
2021/03/26 09:49:08;;;;;;;11.15;7.80;;;;;;;20.15;37.08;100972.47;5007638;28;20045;-71
2021/03/26 09:52:05;;;;;;;10.40;8.05;;;;;;;20.00;37.04;100969.09;5005995;28;20556;-71
2021/03/26 09:54:40;;;;;;;10.77;8.07;;;;;;;19.73;37.34;100959.16;5007661;28;20442;-71
2021/03/26 09:57:45;;;;;;;11.15;8.40;;;;;;;19.54;36.56;100954.47;5001966;28;20053;-71
2021/03/26 10:00:44;;;;;;;12.00;7.93;;;;;;;19.39;37.83;100951.94;4990612;28;20073;-70
2021/03/26 10:03:45;;;;;;;10.73;7.60;;;;;;;19.05;38.40;100948.28;5002312;28;20038;-70
2021/03/26 10:06:25;;;;;;;9.38;5.88;;;;;;;18.69;38.85;100945.75;4981400;28;20441;-71
2021/03/26 10:09:03;;;;;;;12.75;7.97;;;;;;;18.74;39.06;100940.63;5005865;28;20042;-70
2021/03/26 10:11:33;;;;;;;11.80;7.30;;;;;;;18.70;39.02;100942.03;5003784;28;20065;-70
2021/03/26 10:14:08;;;;;;;12.63;7.82;;;;;;;18.69;39.54;100940.38;5008180;28;20030;-70
2021/03/26 10:16:33;;;;;;;9.88;7.18;;;;;;;18.59;39.36;100942.56;5007466;28;20034;-70
2021/03/26 10:19:03;;;;;;;12.23;7.47;;;;;;;18.46;39.34;100937.94;4992006;28;20141;-71
2021/03/26 10:21:32;;;;;;;11.90;6.43;;;;;;;18.26;39.43;100924.41;5007937;28;20038;-71
2021/03/26 10:24:20;;;;;;;12.02;7.57;;;;;;;18.36;39.42;100927.56;5006379;28;20026;-71
2021/03/26 10:27:05;;;;;;;8.93;5.90;;;;;;;17.65;40.82;100924.75;5008560;28;20057;-71
2021/03/26 10:29:55;;;;;;;11.50;7.95;;;;;;;17.82;39.79;100920.88;5000614;28;20050;-71
2021/03/26 10:32:26;;;;;;;10.68;6.70;;;;;;;17.61;40.57;100913.63;5006170;28;20439;-72
2021/03/26 10:34:54;;;;;;;13.07;8.43;;;;;;;17.61;40.77;100915.47;5000205;28;20033;-71
2021/03/26 10:37:55;;;;;;;12.50;6.75;;;;;;;17.10;41.81;100904.75;5006279;28;20325;-71
2021/03/26 10:40:32;;;;;;;10.77;7.03;;;;;;;16.60;43.78;100901.75;4991705;28;20073;-72
2021/03/26 10:43:22;;;;;;;10.90;7.00;;;;;;;16.91;42.92;100904.31;5004282;28;20132;-72
2021/03/26 10:46:04;;;;;;;8.95;5.50;;;;;;;16.81;42.92;100897.59;5006926;28;20049;-71
2021/03/26 10:49:04;;;;;;;10.75;6.93;;;;;;;17.13;42.56;100893.69;5007822;28;20522;-71
2021/03/26 10:51:49;;;;;;;10.73;7.60;;;;;;;17.24;41.36;100895.09;5007096;28;20045;-72
2021/03/26 10:54:18;;;;;;;10.23;6.55;;;;;;;16.98;42.02;100883.84;5005441;28;20117;-72
2021/03/26 10:57:11;;;;;;;10.13;6.43;;;;;;;16.65;43.02;100878.00;5008695;28;20033;-71
2021/03/26 10:59:54;;;;;;;10.93;6.32;;;;;;;16.60;43.76;100875.06;5007909;28;20030;-71
2021/03/26 11:02:23;;;;;;;9.45;6.07;;;;;;;16.79;42.82;100873.72;5007958;28;20499;-71
2021/03/26 11:05:24;;;;;;;9.77;6.68;;;;;;;16.89;42.50;100868.09;5011215;28;20132;-71
2021/03/26 11:07:59;;;;;;;9.02;6.78;;;;;;;16.76;43.24;100864.22;5009812;28;20390;-71
2021/03/26 11:10:31;;;;;;;10.27;7.00;;;;;;;16.59;44.11;100860.06;5010915;28;20061;-71
2021/03/26 11:13:05;;;;;;;11.55;7.43;;;;;;;16.75;42.16;100861.72;4993608;28;20136;-71
2021/03/26 11:15:36;;;;;;;9.15;5.32;;;;;;;16.39;42.93;100854.41;5011483;28;20026;-71
2021/03/26 11:18:17;;;;;;;12.02;6.50;;;;;;;16.40;41.93;100842.75;5004078;28;20034;-71
2021/03/26 11:20:51;;;;;;;9.35;6.45;;;;;;;16.60;41.10;100848.38;5009436;28;20037;-72
2021/03/26 11:23:26;;;;;;;7.47;5.15;;;;;;;16.33;42.27;100839.16;5005599;28;20534;-71
2021/03/26 11:26:08;;;;;;;9.43;5.55;;;;;;;16.21;43.54;100833.41;5009598;28;20073;-71
2021/03/26 11:28:45;;;;;;;10.63;6.80;;;;;;;16.61;42.90;100838.50;5010468;28;20042;-72
2021/03/26 11:31:57;;;;;;;12.13;6.80;;;;;;;16.79;41.42;100830.19;5011219;28;20033;-71
2021/03/26 11:34:46;;;;;;;10.07;6.50;;;;;;;16.57;41.60;100811.38;5003577;28;20038;-71
2021/03/26 11:37:22;;;;;;;12.70;7.65;;;;;;;16.73;41.02;100811.19;5010132;28;20045;-72
2021/03/26 11:40:14;;;;;;;10.45;7.35;;;;;;;16.79;41.15;100809.63;5006139;28;20037;-71
2021/03/26 11:42:46;;;;;;;12.70;6.80;;;;;;;16.59;41.62;100803.16;5004118;28;20040;-72
2021/03/26 11:45:33;;;;;;;10.93;7.10;;;;;;;16.66;41.86;100796.91;5010836;28;20525;-71
2021/03/26 11:48:03;;;;;;;12.13;7.72;;;;;;;16.68;42.42;100792.19;5011004;28;20038;-71
2021/03/26 11:50:33;;;;;;;10.48;7.70;;;;;;;16.83;41.96;100786.03;5007697;28;20037;-71
2021/03/26 11:52:59;;;;;;;10.18;7.40;;;;;;;16.75;42.27;100787.75;5004771;28;20394;-71
2021/03/26 11:55:30;;;;;;;13.20;7.50;;;;;;;16.87;41.74;100773.97;5009965;28;20041;-71
2021/03/26 11:58:28;;;;;;;10.65;7.72;;;;;;;16.90;41.91;100782.47;5010364;28;20372;-73
2021/03/26 12:01:02;;;;;;;10.07;6.82;;;;;;;16.89;41.81;100761.25;5009601;28;20046;-71
2021/03/26 12:03:56;;;;;;;9.82;6.15;;;;;;;16.73;42.88;100765.78;5009721;28;20160;-71
2021/03/26 12:06:32;;;;;;;14.45;7.13;;;;;;;16.93;42.36;100754.53;5005246;28;20493;-71
2021/03/26 12:09:01;;;;;;;10.55;6.50;;;;;;;17.10;42.80;100739.94;5009027;28;20109;-71
2021/03/26 12:11:45;;;;;;;8.27;5.50;;;;;;;17.31;39.80;100754.34;5009325;28;20069;-71
2021/03/26 12:14:21;;;;;;;8.88;5.82;;;;;;;17.26;39.85;100751.41;5000508;28;20033;-71
2021/03/26 12:17:02;;;;;;;11.10;6.75;;;;;;;17.28;40.21;100750.19;5009118;28;20052;-71
2021/03/26 12:19:31;;;;;;;8.48;5.80;;;;;;;17.12;41.28;100734.41;5010350;28;20383;-71
2021/03/26 12:22:30;;;;;;;11.68;7.43;;;;;;;17.13;40.29;100739.53;5006069;28;20410;-71